sensor_id;sensor_type;location;lat;lon;timestamp;P1;durP1;ratioP1;P2;durP2;ratioP2
16963;SDS011;8598;50.508;10.436;2023-04-03T00:01:18;4.93;;;2.53;;
16963;SDS011;8598;50.508;10.436;2023-04-03T00:03:46;3.70;;;2.53;;
16963;SDS011;8598;50.508;10.436;2023-04-03T00:06:12;5.93;;;2.40;;
16963;SDS011;8598;50.508;10.436;2023-04-03T00:08:39;4.50;;;2.90;;
16963;SDS011;8598;50.508;10.436;2023-04-03T00:11:06;6.67;;;3.37;;
16963;SDS011;8598;50.508;10.436;2023-04-03T00:13:33;5.43;;;2.87;;
16963;SDS011;8598;50.508;10.436;2023-04-03T00:16:00;5.47;;;2.97;;
16963;SDS011;8598;50.508;10.436;2023-04-03T00:18:28;5.00;;;3.30;;
16963;SDS011;8598;50.508;10.436;2023-04-03T00:20:56;4.13;;;2.70;;
16963;SDS011;8598;50.508;10.436;2023-04-03T00:23:22;7.23;;;3.47;;
16963;SDS011;8598;50.508;10.436;2023-04-03T00:25:49;6.83;;;3.07;;
16963;SDS011;8598;50.508;10.436;2023-04-03T00:28:16;7.50;;;3.50;;
16963;SDS011;8598;50.508;10.436;2023-04-03T00:30:42;5.20;;;3.43;;
16963;SDS011;8598;50.508;10.436;2023-04-03T00:33:09;7.37;;;3.63;;
16963;SDS011;8598;50.508;10.436;2023-04-03T00:35:37;4.40;;;3.00;;
16963;SDS011;8598;50.508;10.436;2023-04-03T00:38:06;5.70;;;3.53;;
16963;SDS011;8598;50.508;10.436;2023-04-03T00:40:33;6.47;;;3.57;;
16963;SDS011;8598;50.508;10.436;2023-04-03T00:43:01;5.67;;;3.40;;
16963;SDS011;8598;50.508;10.436;2023-04-03T00:45:31;7.23;;;3.47;;
16963;SDS011;8598;50.508;10.436;2023-04-03T00:48:00;3.87;;;3.03;;
16963;SDS011;8598;50.508;10.436;2023-04-03T00:50:30;6.70;;;4.20;;
16963;SDS011;8598;50.508;10.436;2023-04-03T00:52:58;7.37;;;3.90;;
16963;SDS011;8598;50.508;10.436;2023-04-03T00:55:26;3.60;;;3.30;;
16963;SDS011;8598;50.508;10.436;2023-04-03T00:57:53;6.23;;;3.60;;
16963;SDS011;8598;50.508;10.436;2023-04-03T01:00:21;4.03;;;3.63;;
16963;SDS011;8598;50.508;10.436;2023-04-03T01:02:49;3.93;;;3.50;;
16963;SDS011;8598;50.508;10.436;2023-04-03T01:05:17;7.23;;;3.63;;
16963;SDS011;8598;50.508;10.436;2023-04-03T01:07:45;4.33;;;3.73;;
16963;SDS011;8598;50.508;10.436;2023-04-03T01:10:14;4.70;;;3.70;;
16963;SDS011;8598;50.508;10.436;2023-04-03T01:12:44;6.27;;;3.80;;
16963;SDS011;8598;50.508;10.436;2023-04-03T01:15:13;7.30;;;3.90;;
16963;SDS011;8598;50.508;10.436;2023-04-03T01:17:42;5.03;;;3.33;;
16963;SDS011;8598;50.508;10.436;2023-04-03T01:23:25;5.07;;;3.77;;
16963;SDS011;8598;50.508;10.436;2023-04-03T01:25:58;9.57;;;3.70;;
16963;SDS011;8598;50.508;10.436;2023-04-03T01:28:27;7.03;;;3.53;;
16963;SDS011;8598;50.508;10.436;2023-04-03T01:30:56;6.53;;;3.90;;
16963;SDS011;8598;50.508;10.436;2023-04-03T01:33:29;3.63;;;3.33;;
16963;SDS011;8598;50.508;10.436;2023-04-03T01:35:56;9.47;;;4.07;;
16963;SDS011;8598;50.508;10.436;2023-04-03T01:38:23;5.17;;;3.83;;
16963;SDS011;8598;50.508;10.436;2023-04-03T01:40:50;8.10;;;3.60;;
16963;SDS011;8598;50.508;10.436;2023-04-03T01:43:17;6.53;;;3.50;;
16963;SDS011;8598;50.508;10.436;2023-04-03T01:45:43;5.83;;;4.10;;
16963;SDS011;8598;50.508;10.436;2023-04-03T01:48:11;7.20;;;3.60;;
16963;SDS011;8598;50.508;10.436;2023-04-03T01:50:40;5.13;;;3.50;;
16963;SDS011;8598;50.508;10.436;2023-04-03T01:53:07;5.30;;;3.63;;
16963;SDS011;8598;50.508;10.436;2023-04-03T01:55:34;4.47;;;3.53;;
16963;SDS011;8598;50.508;10.436;2023-04-03T01:58:01;5.47;;;3.73;;
16963;SDS011;8598;50.508;10.436;2023-04-03T02:00:28;3.77;;;3.47;;
16963;SDS011;8598;50.508;10.436;2023-04-03T02:02:54;5.97;;;3.40;;
16963;SDS011;8598;50.508;10.436;2023-04-03T02:05:21;4.00;;;3.70;;
16963;SDS011;8598;50.508;10.436;2023-04-03T02:07:49;5.20;;;3.50;;
16963;SDS011;8598;50.508;10.436;2023-04-03T02:10:16;4.37;;;3.50;;
16963;SDS011;8598;50.508;10.436;2023-04-03T02:12:43;5.47;;;3.50;;
16963;SDS011;8598;50.508;10.436;2023-04-03T02:15:10;6.67;;;3.90;;
16963;SDS011;8598;50.508;10.436;2023-04-03T02:17:36;7.83;;;4.60;;
16963;SDS011;8598;50.508;10.436;2023-04-03T02:20:03;9.87;;;3.40;;
16963;SDS011;8598;50.508;10.436;2023-04-03T02:22:31;5.40;;;4.70;;
16963;SDS011;8598;50.508;10.436;2023-04-03T02:24:59;7.73;;;4.70;;
16963;SDS011;8598;50.508;10.436;2023-04-03T02:27:25;6.27;;;3.93;;
16963;SDS011;8598;50.508;10.436;2023-04-03T02:29:52;7.73;;;4.83;;
16963;SDS011;8598;50.508;10.436;2023-04-03T02:32:19;4.33;;;3.93;;
16963;SDS011;8598;50.508;10.436;2023-04-03T02:34:45;7.93;;;4.60;;
16963;SDS011;8598;50.508;10.436;2023-04-03T02:37:12;3.97;;;3.63;;
16963;SDS011;8598;50.508;10.436;2023-04-03T02:39:39;8.97;;;4.27;;
16963;SDS011;8598;50.508;10.436;2023-04-03T02:42:07;10.23;;;4.63;;
16963;SDS011;8598;50.508;10.436;2023-04-03T02:44:34;6.37;;;3.93;;
16963;SDS011;8598;50.508;10.436;2023-04-03T02:47:00;10.80;;;4.27;;
16963;SDS011;8598;50.508;10.436;2023-04-03T02:49:27;8.23;;;4.73;;
16963;SDS011;8598;50.508;10.436;2023-04-03T02:51:54;10.47;;;4.87;;
16963;SDS011;8598;50.508;10.436;2023-04-03T02:54:20;7.80;;;4.47;;
16963;SDS011;8598;50.508;10.436;2023-04-03T02:56:48;6.97;;;4.40;;
16963;SDS011;8598;50.508;10.436;2023-04-03T02:59:16;8.17;;;4.43;;
16963;SDS011;8598;50.508;10.436;2023-04-03T03:01:42;4.33;;;3.93;;
16963;SDS011;8598;50.508;10.436;2023-04-03T03:04:09;6.63;;;4.43;;
16963;SDS011;8598;50.508;10.436;2023-04-03T03:06:36;5.27;;;4.57;;
16963;SDS011;8598;50.508;10.436;2023-04-03T03:09:02;6.70;;;4.67;;
16963;SDS011;8598;50.508;10.436;2023-04-03T03:11:30;5.70;;;4.30;;
16963;SDS011;8598;50.508;10.436;2023-04-03T03:13:57;6.77;;;4.67;;
16963;SDS011;8598;50.508;10.436;2023-04-03T03:16:25;4.97;;;4.53;;
16963;SDS011;8598;50.508;10.436;2023-04-03T03:18:52;7.97;;;4.97;;
16963;SDS011;8598;50.508;10.436;2023-04-03T03:21:18;4.87;;;4.37;;
16963;SDS011;8598;50.508;10.436;2023-04-03T03:23:45;6.93;;;4.63;;
16963;SDS011;8598;50.508;10.436;2023-04-03T03:26:12;6.00;;;4.37;;
16963;SDS011;8598;50.508;10.436;2023-04-03T03:28:39;9.47;;;4.53;;
16963;SDS011;8598;50.508;10.436;2023-04-03T03:31:06;7.83;;;4.87;;
16963;SDS011;8598;50.508;10.436;2023-04-03T03:33:36;8.93;;;5.40;;
16963;SDS011;8598;50.508;10.436;2023-04-03T03:36:03;11.33;;;5.27;;
16963;SDS011;8598;50.508;10.436;2023-04-03T03:38:29;6.67;;;4.33;;
16963;SDS011;8598;50.508;10.436;2023-04-03T03:40:56;7.13;;;5.23;;
16963;SDS011;8598;50.508;10.436;2023-04-03T03:43:23;8.70;;;4.83;;
16963;SDS011;8598;50.508;10.436;2023-04-03T03:45:50;7.33;;;5.30;;
16963;SDS011;8598;50.508;10.436;2023-04-03T03:48:17;10.97;;;4.97;;
16963;SDS011;8598;50.508;10.436;2023-04-03T03:50:46;8.77;;;5.67;;
16963;SDS011;8598;50.508;10.436;2023-04-03T03:53:13;7.80;;;4.30;;
16963;SDS011;8598;50.508;10.436;2023-04-03T03:55:39;9.63;;;5.17;;
16963;SDS011;8598;50.508;10.436;2023-04-03T03:58:06;10.10;;;5.37;;
16963;SDS011;8598;50.508;10.436;2023-04-03T04:00:33;9.20;;;5.33;;
16963;SDS011;8598;50.508;10.436;2023-04-03T04:03:00;11.37;;;5.77;;
16963;SDS011;8598;50.508;10.436;2023-04-03T04:05:27;12.53;;;5.27;;
16963;SDS011;8598;50.508;10.436;2023-04-03T04:07:55;8.97;;;4.90;;
16963;SDS011;8598;50.508;10.436;2023-04-03T04:10:21;10.70;;;5.13;;
16963;SDS011;8598;50.508;10.436;2023-04-03T04:12:48;5.07;;;4.57;;
16963;SDS011;8598;50.508;10.436;2023-04-03T04:15:16;6.87;;;4.60;;
16963;SDS011;8598;50.508;10.436;2023-04-03T04:17:42;6.80;;;5.00;;
16963;SDS011;8598;50.508;10.436;2023-04-03T04:20:09;6.97;;;4.97;;
16963;SDS011;8598;50.508;10.436;2023-04-03T04:22:37;8.80;;;5.30;;
16963;SDS011;8598;50.508;10.436;2023-04-03T04:25:05;5.97;;;5.27;;
16963;SDS011;8598;50.508;10.436;2023-04-03T04:27:32;8.20;;;5.37;;
16963;SDS011;8598;50.508;10.436;2023-04-03T04:29:59;7.00;;;5.30;;
16963;SDS011;8598;50.508;10.436;2023-04-03T04:32:25;6.30;;;4.97;;
16963;SDS011;8598;50.508;10.436;2023-04-03T04:34:52;5.93;;;4.50;;
16963;SDS011;8598;50.508;10.436;2023-04-03T04:37:19;6.53;;;4.43;;
16963;SDS011;8598;50.508;10.436;2023-04-03T04:39:45;6.20;;;4.83;;
16963;SDS011;8598;50.508;10.436;2023-04-03T04:42:13;9.00;;;5.10;;
16963;SDS011;8598;50.508;10.436;2023-04-03T04:44:40;5.73;;;5.00;;
16963;SDS011;8598;50.508;10.436;2023-04-03T04:47:07;11.27;;;5.33;;
16963;SDS011;8598;50.508;10.436;2023-04-03T04:49:33;11.53;;;4.63;;
16963;SDS011;8598;50.508;10.436;2023-04-03T04:52:00;7.20;;;4.80;;
16963;SDS011;8598;50.508;10.436;2023-04-03T04:54:26;6.33;;;4.60;;
16963;SDS011;8598;50.508;10.436;2023-04-03T04:56:53;7.53;;;4.50;;
16963;SDS011;8598;50.508;10.436;2023-04-03T04:59:21;8.23;;;5.20;;
16963;SDS011;8598;50.508;10.436;2023-04-03T05:01:48;6.47;;;5.10;;
16963;SDS011;8598;50.508;10.436;2023-04-03T05:04:14;8.97;;;4.70;;
16963;SDS011;8598;50.508;10.436;2023-04-03T05:06:42;5.47;;;4.80;;
16963;SDS011;8598;50.508;10.436;2023-04-03T05:09:08;9.47;;;5.40;;
16963;SDS011;8598;50.508;10.436;2023-04-03T05:11:35;6.97;;;4.83;;
16963;SDS011;8598;50.508;10.436;2023-04-03T05:14:02;13.53;;;5.37;;
16963;SDS011;8598;50.508;10.436;2023-04-03T05:16:32;9.23;;;5.03;;
16963;SDS011;8598;50.508;10.436;2023-04-03T05:18:59;6.20;;;5.23;;
16963;SDS011;8598;50.508;10.436;2023-04-03T05:21:26;5.73;;;4.70;;
16963;SDS011;8598;50.508;10.436;2023-04-03T05:23:56;12.20;;;4.70;;
16963;SDS011;8598;50.508;10.436;2023-04-03T05:26:23;8.03;;;5.50;;
16963;SDS011;8598;50.508;10.436;2023-04-03T05:28:50;6.37;;;5.07;;
16963;SDS011;8598;50.508;10.436;2023-04-03T05:31:17;7.33;;;4.80;;
16963;SDS011;8598;50.508;10.436;2023-04-03T05:33:45;10.03;;;4.83;;
16963;SDS011;8598;50.508;10.436;2023-04-03T05:36:12;7.13;;;4.83;;
16963;SDS011;8598;50.508;10.436;2023-04-03T05:38:38;13.73;;;5.30;;
16963;SDS011;8598;50.508;10.436;2023-04-03T05:41:05;7.37;;;4.67;;
16963;SDS011;8598;50.508;10.436;2023-04-03T05:43:32;5.30;;;4.73;;
16963;SDS011;8598;50.508;10.436;2023-04-03T05:45:59;6.83;;;5.07;;
16963;SDS011;8598;50.508;10.436;2023-04-03T05:48:26;6.40;;;4.93;;
16963;SDS011;8598;50.508;10.436;2023-04-03T05:50:54;4.63;;;4.07;;
16963;SDS011;8598;50.508;10.436;2023-04-03T05:53:21;7.87;;;5.20;;
16963;SDS011;8598;50.508;10.436;2023-04-03T05:55:50;7.87;;;4.63;;
16963;SDS011;8598;50.508;10.436;2023-04-03T05:58:18;9.37;;;5.63;;
16963;SDS011;8598;50.508;10.436;2023-04-03T06:00:45;28.37;;;17.30;;
16963;SDS011;8598;50.508;10.436;2023-04-03T06:03:12;22.00;;;14.60;;
16963;SDS011;8598;50.508;10.436;2023-04-03T06:05:38;15.97;;;9.33;;
16963;SDS011;8598;50.508;10.436;2023-04-03T06:08:06;11.40;;;7.30;;
16963;SDS011;8598;50.508;10.436;2023-04-03T06:10:34;5.57;;;4.53;;
16963;SDS011;8598;50.508;10.436;2023-04-03T06:13:01;7.00;;;4.57;;
16963;SDS011;8598;50.508;10.436;2023-04-03T06:15:27;6.60;;;4.07;;
16963;SDS011;8598;50.508;10.436;2023-04-03T06:17:54;6.13;;;3.43;;
16963;SDS011;8598;50.508;10.436;2023-04-03T06:20:21;7.10;;;3.83;;
16963;SDS011;8598;50.508;10.436;2023-04-03T06:22:48;5.50;;;3.70;;
16963;SDS011;8598;50.508;10.436;2023-04-03T06:25:17;5.83;;;3.60;;
16963;SDS011;8598;50.508;10.436;2023-04-03T06:27:43;3.80;;;3.40;;
16963;SDS011;8598;50.508;10.436;2023-04-03T06:30:10;4.53;;;3.67;;
16963;SDS011;8598;50.508;10.436;2023-04-03T06:32:37;4.83;;;4.33;;
16963;SDS011;8598;50.508;10.436;2023-04-03T06:35:04;4.03;;;3.63;;
16963;SDS011;8598;50.508;10.436;2023-04-03T06:37:31;6.50;;;4.50;;
16963;SDS011;8598;50.508;10.436;2023-04-03T06:39:58;4.67;;;3.87;;
16963;SDS011;8598;50.508;10.436;2023-04-03T06:42:27;6.30;;;3.20;;
16963;SDS011;8598;50.508;10.436;2023-04-03T06:44:53;4.57;;;3.67;;
16963;SDS011;8598;50.508;10.436;2023-04-03T06:47:20;2.90;;;2.70;;
16963;SDS011;8598;50.508;10.436;2023-04-03T06:49:46;5.37;;;3.17;;
16963;SDS011;8598;50.508;10.436;2023-04-03T06:52:13;5.40;;;3.97;;
16963;SDS011;8598;50.508;10.436;2023-04-03T06:54:40;4.57;;;3.53;;
16963;SDS011;8598;50.508;10.436;2023-04-03T06:57:07;4.03;;;3.73;;
16963;SDS011;8598;50.508;10.436;2023-04-03T06:59:35;4.90;;;3.77;;
16963;SDS011;8598;50.508;10.436;2023-04-03T07:02:02;3.87;;;3.43;;
16963;SDS011;8598;50.508;10.436;2023-04-03T07:04:29;4.47;;;4.07;;
16963;SDS011;8598;50.508;10.436;2023-04-03T07:06:55;8.03;;;4.30;;
16963;SDS011;8598;50.508;10.436;2023-04-03T07:09:22;3.60;;;3.30;;
16963;SDS011;8598;50.508;10.436;2023-04-03T07:11:49;5.77;;;3.77;;
16963;SDS011;8598;50.508;10.436;2023-04-03T07:14:16;7.10;;;4.00;;
16963;SDS011;8598;50.508;10.436;2023-04-03T07:16:44;5.00;;;4.00;;
16963;SDS011;8598;50.508;10.436;2023-04-03T07:19:10;5.10;;;4.17;;
16963;SDS011;8598;50.508;10.436;2023-04-03T07:21:37;5.80;;;4.40;;
16963;SDS011;8598;50.508;10.436;2023-04-03T07:24:04;4.43;;;3.97;;
16963;SDS011;8598;50.508;10.436;2023-04-03T07:26:30;5.20;;;3.50;;
16963;SDS011;8598;50.508;10.436;2023-04-03T07:28:57;5.20;;;4.27;;
16963;SDS011;8598;50.508;10.436;2023-04-03T07:31:24;12.70;;;6.77;;
16963;SDS011;8598;50.508;10.436;2023-04-03T07:33:52;33.43;;;14.13;;
16963;SDS011;8598;50.508;10.436;2023-04-03T07:36:20;5.70;;;4.17;;
16963;SDS011;8598;50.508;10.436;2023-04-03T07:38:49;6.50;;;3.43;;
16963;SDS011;8598;50.508;10.436;2023-04-03T07:41:16;5.23;;;3.07;;
16963;SDS011;8598;50.508;10.436;2023-04-03T07:43:45;7.13;;;3.07;;
16963;SDS011;8598;50.508;10.436;2023-04-03T07:46:12;7.93;;;3.07;;
16963;SDS011;8598;50.508;10.436;2023-04-03T07:48:38;6.17;;;3.40;;
16963;SDS011;8598;50.508;10.436;2023-04-03T07:51:06;4.00;;;3.13;;
16963;SDS011;8598;50.508;10.436;2023-04-03T07:53:33;6.20;;;3.33;;
16963;SDS011;8598;50.508;10.436;2023-04-03T07:55:59;6.53;;;3.50;;
16963;SDS011;8598;50.508;10.436;2023-04-03T07:58:27;3.70;;;2.93;;
16963;SDS011;8598;50.508;10.436;2023-04-03T08:00:55;13.03;;;5.00;;
16963;SDS011;8598;50.508;10.436;2023-04-03T08:03:22;5.50;;;2.97;;
16963;SDS011;8598;50.508;10.436;2023-04-03T08:05:49;5.40;;;3.27;;
16963;SDS011;8598;50.508;10.436;2023-04-03T08:08:19;4.87;;;3.10;;
16963;SDS011;8598;50.508;10.436;2023-04-03T08:10:48;5.03;;;4.00;;
16963;SDS011;8598;50.508;10.436;2023-04-03T08:13:16;5.73;;;3.77;;
16963;SDS011;8598;50.508;10.436;2023-04-03T08:15:42;4.53;;;3.50;;
16963;SDS011;8598;50.508;10.436;2023-04-03T08:18:09;7.07;;;3.10;;
16963;SDS011;8598;50.508;10.436;2023-04-03T08:20:37;5.00;;;3.70;;
16963;SDS011;8598;50.508;10.436;2023-04-03T08:23:05;5.93;;;4.07;;
16963;SDS011;8598;50.508;10.436;2023-04-03T08:25:33;3.73;;;3.20;;
16963;SDS011;8598;50.508;10.436;2023-04-03T08:28:01;10.33;;;3.10;;
16963;SDS011;8598;50.508;10.436;2023-04-03T08:30:28;3.93;;;2.70;;
16963;SDS011;8598;50.508;10.436;2023-04-03T08:32:54;4.03;;;2.40;;
16963;SDS011;8598;50.508;10.436;2023-04-03T08:35:21;3.00;;;2.47;;
16963;SDS011;8598;50.508;10.436;2023-04-03T08:37:47;5.00;;;2.53;;
16963;SDS011;8598;50.508;10.436;2023-04-03T08:40:15;3.90;;;2.43;;
16963;SDS011;8598;50.508;10.436;2023-04-03T08:42:47;5.33;;;2.97;;
16963;SDS011;8598;50.508;10.436;2023-04-03T08:45:19;4.90;;;2.50;;
16963;SDS011;8598;50.508;10.436;2023-04-03T08:47:53;7.17;;;2.57;;
16963;SDS011;8598;50.508;10.436;2023-04-03T08:50:26;7.77;;;4.73;;
16963;SDS011;8598;50.508;10.436;2023-04-03T08:52:58;3.67;;;1.77;;
16963;SDS011;8598;50.508;10.436;2023-04-03T08:55:27;2.87;;;1.90;;
16963;SDS011;8598;50.508;10.436;2023-04-03T08:57:59;2.73;;;2.10;;
16963;SDS011;8598;50.508;10.436;2023-04-03T09:00:28;4.83;;;1.80;;
16963;SDS011;8598;50.508;10.436;2023-04-03T09:03:00;2.97;;;2.00;;
16963;SDS011;8598;50.508;10.436;2023-04-03T09:05:29;1.97;;;1.87;;
16963;SDS011;8598;50.508;10.436;2023-04-03T09:08:06;4.20;;;2.30;;
16963;SDS011;8598;50.508;10.436;2023-04-03T09:10:40;2.50;;;2.10;;
16963;SDS011;8598;50.508;10.436;2023-04-03T09:13:10;2.40;;;2.20;;
16963;SDS011;8598;50.508;10.436;2023-04-03T09:15:45;4.13;;;2.10;;
16963;SDS011;8598;50.508;10.436;2023-04-03T09:18:13;2.47;;;2.17;;
16963;SDS011;8598;50.508;10.436;2023-04-03T09:20:46;3.27;;;2.20;;
16963;SDS011;8598;50.508;10.436;2023-04-03T09:23:21;2.53;;;2.30;;
16963;SDS011;8598;50.508;10.436;2023-04-03T09:25:53;6.67;;;2.70;;
16963;SDS011;8598;50.508;10.436;2023-04-03T09:28:25;3.33;;;2.17;;
16963;SDS011;8598;50.508;10.436;2023-04-03T09:30:52;3.80;;;2.03;;
16963;SDS011;8598;50.508;10.436;2023-04-03T09:33:19;5.47;;;2.13;;
16963;SDS011;8598;50.508;10.436;2023-04-03T09:35:47;1.87;;;1.77;;
16963;SDS011;8598;50.508;10.436;2023-04-03T09:38:17;2.10;;;1.90;;
16963;SDS011;8598;50.508;10.436;2023-04-03T09:40:47;3.80;;;2.03;;
16963;SDS011;8598;50.508;10.436;2023-04-03T09:43:23;3.67;;;2.10;;
16963;SDS011;8598;50.508;10.436;2023-04-03T09:45:53;4.50;;;2.37;;
16963;SDS011;8598;50.508;10.436;2023-04-03T09:48:22;4.30;;;2.33;;
16963;SDS011;8598;50.508;10.436;2023-04-03T09:50:56;2.37;;;1.90;;
16963;SDS011;8598;50.508;10.436;2023-04-03T09:53:26;2.50;;;2.17;;
16963;SDS011;8598;50.508;10.436;2023-04-03T09:56:03;2.87;;;2.47;;
16963;SDS011;8598;50.508;10.436;2023-04-03T09:58:46;3.17;;;2.00;;
16963;SDS011;8598;50.508;10.436;2023-04-03T10:01:20;2.70;;;2.37;;
16963;SDS011;8598;50.508;10.436;2023-04-03T10:04:03;4.07;;;2.20;;
16963;SDS011;8598;50.508;10.436;2023-04-03T10:06:34;6.37;;;2.17;;
16963;SDS011;8598;50.508;10.436;2023-04-03T10:09:03;3.70;;;2.67;;
16963;SDS011;8598;50.508;10.436;2023-04-03T10:11:31;4.67;;;3.07;;
16963;SDS011;8598;50.508;10.436;2023-04-03T10:14:00;5.93;;;2.40;;
16963;SDS011;8598;50.508;10.436;2023-04-03T10:16:32;2.77;;;2.30;;
16963;SDS011;8598;50.508;10.436;2023-04-03T10:19:05;3.57;;;2.43;;
16963;SDS011;8598;50.508;10.436;2023-04-03T10:21:40;3.50;;;2.20;;
16963;SDS011;8598;50.508;10.436;2023-04-03T10:24:11;6.87;;;2.70;;
16963;SDS011;8598;50.508;10.436;2023-04-03T10:26:45;4.17;;;1.93;;
16963;SDS011;8598;50.508;10.436;2023-04-03T10:29:25;2.20;;;2.00;;
16963;SDS011;8598;50.508;10.436;2023-04-03T10:32:03;8.83;;;2.40;;
16963;SDS011;8598;50.508;10.436;2023-04-03T10:34:47;4.10;;;2.20;;
16963;SDS011;8598;50.508;10.436;2023-04-03T10:37:24;2.37;;;2.17;;
16963;SDS011;8598;50.508;10.436;2023-04-03T10:39:54;5.13;;;2.00;;
16963;SDS011;8598;50.508;10.436;2023-04-03T10:42:27;3.13;;;2.13;;
16963;SDS011;8598;50.508;10.436;2023-04-03T10:45:07;5.20;;;2.10;;
16963;SDS011;8598;50.508;10.436;2023-04-03T10:47:45;5.10;;;2.10;;
16963;SDS011;8598;50.508;10.436;2023-04-03T10:50:26;5.43;;;2.00;;
16963;SDS011;8598;50.508;10.436;2023-04-03T10:52:58;2.30;;;1.73;;
16963;SDS011;8598;50.508;10.436;2023-04-03T10:55:31;2.37;;;2.00;;
16963;SDS011;8598;50.508;10.436;2023-04-03T10:58:03;3.23;;;1.80;;
16963;SDS011;8598;50.508;10.436;2023-04-03T11:00:35;2.63;;;1.57;;
16963;SDS011;8598;50.508;10.436;2023-04-03T11:03:05;5.53;;;1.77;;
16963;SDS011;8598;50.508;10.436;2023-04-03T11:05:36;2.93;;;1.70;;
16963;SDS011;8598;50.508;10.436;2023-04-03T11:08:08;2.90;;;2.00;;
16963;SDS011;8598;50.508;10.436;2023-04-03T11:10:42;4.20;;;1.87;;
16963;SDS011;8598;50.508;10.436;2023-04-03T11:13:11;3.83;;;1.73;;
16963;SDS011;8598;50.508;10.436;2023-04-03T11:15:43;3.10;;;1.87;;
16963;SDS011;8598;50.508;10.436;2023-04-03T11:18:11;2.67;;;1.70;;
16963;SDS011;8598;50.508;10.436;2023-04-03T11:20:42;2.07;;;1.77;;
16963;SDS011;8598;50.508;10.436;2023-04-03T11:23:24;1.77;;;1.67;;
16963;SDS011;8598;50.508;10.436;2023-04-03T11:25:53;4.53;;;1.53;;
16963;SDS011;8598;50.508;10.436;2023-04-03T11:28:25;2.27;;;1.77;;
16963;SDS011;8598;50.508;10.436;2023-04-03T11:30:55;2.33;;;1.70;;
16963;SDS011;8598;50.508;10.436;2023-04-03T11:33:41;4.83;;;1.90;;
16963;SDS011;8598;50.508;10.436;2023-04-03T11:36:18;3.80;;;1.40;;
16963;SDS011;8598;50.508;10.436;2023-04-03T11:38:47;2.87;;;1.70;;
16963;SDS011;8598;50.508;10.436;2023-04-03T11:41:18;3.40;;;1.60;;
16963;SDS011;8598;50.508;10.436;2023-04-03T11:43:56;1.50;;;1.40;;
16963;SDS011;8598;50.508;10.436;2023-04-03T11:46:36;2.17;;;1.90;;
16963;SDS011;8598;50.508;10.436;2023-04-03T11:58:12;1.80;;;1.57;;
16963;SDS011;8598;50.508;10.436;2023-04-03T12:00:51;1.80;;;1.70;;
16963;SDS011;8598;50.508;10.436;2023-04-03T12:03:32;2.30;;;1.50;;
16963;SDS011;8598;50.508;10.436;2023-04-03T12:09:26;1.60;;;1.50;;
16963;SDS011;8598;50.508;10.436;2023-04-03T12:11:55;2.70;;;1.50;;
16963;SDS011;8598;50.508;10.436;2023-04-03T12:14:23;3.27;;;1.33;;
16963;SDS011;8598;50.508;10.436;2023-04-03T12:16:52;4.73;;;2.53;;
16963;SDS011;8598;50.508;10.436;2023-04-03T12:19:36;1.67;;;1.57;;
16963;SDS011;8598;50.508;10.436;2023-04-03T12:22:15;1.70;;;1.60;;
16963;SDS011;8598;50.508;10.436;2023-04-03T12:24:45;1.60;;;1.50;;
16963;SDS011;8598;50.508;10.436;2023-04-03T12:27:20;2.40;;;2.03;;
16963;SDS011;8598;50.508;10.436;2023-04-03T12:29:51;3.93;;;1.87;;
16963;SDS011;8598;50.508;10.436;2023-04-03T12:32:24;1.90;;;1.70;;
16963;SDS011;8598;50.508;10.436;2023-04-03T12:35:06;5.63;;;1.73;;
16963;SDS011;8598;50.508;10.436;2023-04-03T12:37:40;2.53;;;1.77;;
16963;SDS011;8598;50.508;10.436;2023-04-03T12:40:20;2.00;;;1.60;;
16963;SDS011;8598;50.508;10.436;2023-04-03T12:45:47;1.70;;;1.60;;
16963;SDS011;8598;50.508;10.436;2023-04-03T12:48:18;3.40;;;1.73;;
16963;SDS011;8598;50.508;10.436;2023-04-03T12:50:51;4.97;;;2.10;;
16963;SDS011;8598;50.508;10.436;2023-04-03T12:53:19;3.43;;;2.43;;
16963;SDS011;8598;50.508;10.436;2023-04-03T12:55:47;1.50;;;1.40;;
16963;SDS011;8598;50.508;10.436;2023-04-03T12:58:15;1.90;;;1.80;;
16963;SDS011;8598;50.508;10.436;2023-04-03T13:00:46;3.07;;;1.93;;
16963;SDS011;8598;50.508;10.436;2023-04-03T13:03:25;4.00;;;1.63;;
16963;SDS011;8598;50.508;10.436;2023-04-03T13:05:54;1.83;;;1.73;;
16963;SDS011;8598;50.508;10.436;2023-04-03T13:08:25;2.20;;;2.00;;
16963;SDS011;8598;50.508;10.436;2023-04-03T13:10:53;4.83;;;1.90;;
16963;SDS011;8598;50.508;10.436;2023-04-03T13:13:22;3.23;;;1.97;;
16963;SDS011;8598;50.508;10.436;2023-04-03T13:15:49;1.80;;;1.57;;
16963;SDS011;8598;50.508;10.436;2023-04-03T13:18:23;1.90;;;1.80;;
16963;SDS011;8598;50.508;10.436;2023-04-03T13:20:52;1.70;;;1.60;;
16963;SDS011;8598;50.508;10.436;2023-04-03T13:23:23;3.60;;;1.97;;
16963;SDS011;8598;50.508;10.436;2023-04-03T13:25:50;3.47;;;1.63;;
16963;SDS011;8598;50.508;10.436;2023-04-03T13:28:18;2.77;;;1.80;;
16963;SDS011;8598;50.508;10.436;2023-04-03T13:30:55;3.70;;;2.27;;
16963;SDS011;8598;50.508;10.436;2023-04-03T13:33:26;4.13;;;2.47;;
16963;SDS011;8598;50.508;10.436;2023-04-03T13:35:56;4.93;;;2.63;;
16963;SDS011;8598;50.508;10.436;2023-04-03T13:38:26;2.20;;;1.70;;
16963;SDS011;8598;50.508;10.436;2023-04-03T13:40:57;3.33;;;2.10;;
16963;SDS011;8598;50.508;10.436;2023-04-03T13:43:28;3.20;;;2.03;;
16963;SDS011;8598;50.508;10.436;2023-04-03T13:45:57;1.83;;;1.63;;
16963;SDS011;8598;50.508;10.436;2023-04-03T13:48:34;1.80;;;1.70;;
16963;SDS011;8598;50.508;10.436;2023-04-03T13:51:16;3.13;;;1.80;;
16963;SDS011;8598;50.508;10.436;2023-04-03T13:53:48;1.90;;;1.80;;
16963;SDS011;8598;50.508;10.436;2023-04-03T13:56:18;2.00;;;1.80;;
16963;SDS011;8598;50.508;10.436;2023-04-03T13:58:54;1.63;;;1.53;;
16963;SDS011;8598;50.508;10.436;2023-04-03T14:01:24;2.33;;;1.63;;
16963;SDS011;8598;50.508;10.436;2023-04-03T14:03:53;1.50;;;1.40;;
16963;SDS011;8598;50.508;10.436;2023-04-03T14:06:23;2.30;;;2.10;;
16963;SDS011;8598;50.508;10.436;2023-04-03T14:08:50;2.43;;;1.53;;
16963;SDS011;8598;50.508;10.436;2023-04-03T14:11:18;2.83;;;1.87;;
16963;SDS011;8598;50.508;10.436;2023-04-03T14:13:47;2.90;;;2.20;;
16963;SDS011;8598;50.508;10.436;2023-04-03T14:16:16;4.53;;;1.67;;
16963;SDS011;8598;50.508;10.436;2023-04-03T14:18:45;4.50;;;2.23;;
16963;SDS011;8598;50.508;10.436;2023-04-03T14:21:13;4.03;;;2.07;;
16963;SDS011;8598;50.508;10.436;2023-04-03T14:23:43;1.60;;;1.50;;
16963;SDS011;8598;50.508;10.436;2023-04-03T14:26:12;3.37;;;2.00;;
16963;SDS011;8598;50.508;10.436;2023-04-03T14:28:41;1.53;;;1.53;;
16963;SDS011;8598;50.508;10.436;2023-04-03T14:31:09;1.83;;;1.73;;
16963;SDS011;8598;50.508;10.436;2023-04-03T14:33:36;2.43;;;1.90;;
16963;SDS011;8598;50.508;10.436;2023-04-03T14:36:05;3.30;;;1.70;;
16963;SDS011;8598;50.508;10.436;2023-04-03T14:38:39;6.10;;;2.33;;
16963;SDS011;8598;50.508;10.436;2023-04-03T14:41:07;3.80;;;1.87;;
16963;SDS011;8598;50.508;10.436;2023-04-03T14:43:36;5.30;;;1.90;;
16963;SDS011;8598;50.508;10.436;2023-04-03T14:46:03;2.50;;;1.67;;
16963;SDS011;8598;50.508;10.436;2023-04-03T14:48:30;2.20;;;1.83;;
16963;SDS011;8598;50.508;10.436;2023-04-03T14:50:57;4.33;;;1.40;;
16963;SDS011;8598;50.508;10.436;2023-04-03T14:53:24;4.17;;;1.93;;
16963;SDS011;8598;50.508;10.436;2023-04-03T14:55:51;2.33;;;1.80;;
16963;SDS011;8598;50.508;10.436;2023-04-03T14:58:20;4.37;;;2.10;;
16963;SDS011;8598;50.508;10.436;2023-04-03T15:00:47;1.70;;;1.60;;
16963;SDS011;8598;50.508;10.436;2023-04-03T15:03:14;3.57;;;1.87;;
16963;SDS011;8598;50.508;10.436;2023-04-03T15:05:42;7.00;;;2.87;;
16963;SDS011;8598;50.508;10.436;2023-04-03T15:08:18;1.53;;;1.40;;
16963;SDS011;8598;50.508;10.436;2023-04-03T15:10:46;2.63;;;1.40;;
16963;SDS011;8598;50.508;10.436;2023-04-03T15:13:13;2.00;;;1.80;;
16963;SDS011;8598;50.508;10.436;2023-04-03T15:15:41;6.43;;;1.90;;